sensor_id;sensor_type;location;lat;lon;timestamp;temperature;humidity
39315;DHT22;28703;44.412;11.918;2024-02-26T00:01:27;8.70;99.90
39315;DHT22;28703;44.412;11.918;2024-02-26T00:03:53;8.70;99.90
39315;DHT22;28703;44.412;11.918;2024-02-26T00:06:20;8.70;99.90
39315;DHT22;28703;44.412;11.918;2024-02-26T00:08:46;8.80;99.90
39315;DHT22;28703;44.412;11.918;2024-02-26T00:11:12;8.70;99.90
39315;DHT22;28703;44.412;11.918;2024-02-26T00:13:38;8.70;99.90
39315;DHT22;28703;44.412;11.918;2024-02-26T00:16:04;8.70;99.90
39315;DHT22;28703;44.412;11.918;2024-02-26T00:18:30;8.70;99.90
39315;DHT22;28703;44.412;11.918;2024-02-26T00:20:55;8.70;99.90
39315;DHT22;28703;44.412;11.918;2024-02-26T00:23:21;8.70;99.90
39315;DHT22;28703;44.412;11.918;2024-02-26T00:25:48;8.60;99.90
39315;DHT22;28703;44.412;11.918;2024-02-26T00:28:14;8.50;99.90
39315;DHT22;28703;44.412;11.918;2024-02-26T00:30:39;8.40;99.90
39315;DHT22;28703;44.412;11.918;2024-02-26T00:33:05;8.40;99.90
39315;DHT22;28703;44.412;11.918;2024-02-26T00:35:31;8.40;99.90
39315;DHT22;28703;44.412;11.918;2024-02-26T00:37:57;8.30;99.90
39315;DHT22;28703;44.412;11.918;2024-02-26T00:40:24;8.40;99.90
39315;DHT22;28703;44.412;11.918;2024-02-26T00:42:50;8.30;99.90
39315;DHT22;28703;44.412;11.918;2024-02-26T00:45:15;8.20;99.90
39315;DHT22;28703;44.412;11.918;2024-02-26T00:47:42;8.20;99.90
39315;DHT22;28703;44.412;11.918;2024-02-26T00:50:08;8.20;99.90
39315;DHT22;28703;44.412;11.918;2024-02-26T00:52:34;8.20;99.90
39315;DHT22;28703;44.412;11.918;2024-02-26T00:55:01;8.20;99.90
39315;DHT22;28703;44.412;11.918;2024-02-26T00:57:28;8.20;99.90
39315;DHT22;28703;44.412;11.918;2024-02-26T00:59:53;8.10;99.90
39315;DHT22;28703;44.412;11.918;2024-02-26T01:02:22;8.10;99.90
39315;DHT22;28703;44.412;11.918;2024-02-26T01:04:48;8.10;99.90
39315;DHT22;28703;44.412;11.918;2024-02-26T01:07:14;8.20;99.90
39315;DHT22;28703;44.412;11.918;2024-02-26T01:09:39;8.10;99.90
39315;DHT22;28703;44.412;11.918;2024-02-26T01:12:05;8.10;99.90
39315;DHT22;28703;44.412;11.918;2024-02-26T01:14:31;7.90;99.90
39315;DHT22;28703;44.412;11.918;2024-02-26T01:16:57;7.90;99.90
39315;DHT22;28703;44.412;11.918;2024-02-26T01:19:22;7.80;99.90
39315;DHT22;28703;44.412;11.918;2024-02-26T01:21:48;7.70;99.90
39315;DHT22;28703;44.412;11.918;2024-02-26T01:24:14;7.60;99.90
39315;DHT22;28703;44.412;11.918;2024-02-26T01:26:41;7.60;99.90
39315;DHT22;28703;44.412;11.918;2024-02-26T01:29:07;7.50;99.90
39315;DHT22;28703;44.412;11.918;2024-02-26T01:31:32;7.50;99.90
39315;DHT22;28703;44.412;11.918;2024-02-26T01:33:58;7.50;99.90
39315;DHT22;28703;44.412;11.918;2024-02-26T01:36:24;7.40;99.90
39315;DHT22;28703;44.412;11.918;2024-02-26T01:38:51;7.30;99.90
39315;DHT22;28703;44.412;11.918;2024-02-26T01:41:16;7.20;99.90
39315;DHT22;28703;44.412;11.918;2024-02-26T01:43:42;7.20;99.90
39315;DHT22;28703;44.412;11.918;2024-02-26T01:46:12;7.10;99.90
39315;DHT22;28703;44.412;11.918;2024-02-26T01:48:42;7.10;99.90
39315;DHT22;28703;44.412;11.918;2024-02-26T01:51:08;7.00;99.90
39315;DHT22;28703;44.412;11.918;2024-02-26T01:53:35;6.90;99.90
39315;DHT22;28703;44.412;11.918;2024-02-26T01:56:01;6.90;99.90
39315;DHT22;28703;44.412;11.918;2024-02-26T01:58:29;7.00;99.90
39315;DHT22;28703;44.412;11.918;2024-02-26T02:00:56;7.00;99.90
39315;DHT22;28703;44.412;11.918;2024-02-26T02:03:22;6.90;99.90
39315;DHT22;28703;44.412;11.918;2024-02-26T02:05:50;7.00;99.90
39315;DHT22;28703;44.412;11.918;2024-02-26T02:08:15;6.90;99.90
39315;DHT22;28703;44.412;11.918;2024-02-26T02:10:45;7.00;99.90
39315;DHT22;28703;44.412;11.918;2024-02-26T02:13:13;7.00;99.90
39315;DHT22;28703;44.412;11.918;2024-02-26T02:15:39;7.00;99.90
39315;DHT22;28703;44.412;11.918;2024-02-26T02:18:06;7.10;99.90
39315;DHT22;28703;44.412;11.918;2024-02-26T02:20:32;7.10;99.90
39315;DHT22;28703;44.412;11.918;2024-02-26T02:22:59;7.20;99.90
39315;DHT22;28703;44.412;11.918;2024-02-26T02:25:25;7.20;99.90
39315;DHT22;28703;44.412;11.918;2024-02-26T02:27:53;7.20;99.90
39315;DHT22;28703;44.412;11.918;2024-02-26T02:30:20;7.30;99.90
39315;DHT22;28703;44.412;11.918;2024-02-26T02:32:46;7.30;99.90
39315;DHT22;28703;44.412;11.918;2024-02-26T02:35:12;7.40;99.90
39315;DHT22;28703;44.412;11.918;2024-02-26T02:37:38;7.40;99.90
39315;DHT22;28703;44.412;11.918;2024-02-26T02:40:04;7.40;99.90
39315;DHT22;28703;44.412;11.918;2024-02-26T02:42:30;7.40;99.90
39315;DHT22;28703;44.412;11.918;2024-02-26T02:44:56;7.40;99.90
39315;DHT22;28703;44.412;11.918;2024-02-26T02:47:22;7.50;99.90
39315;DHT22;28703;44.412;11.918;2024-02-26T02:49:48;7.50;99.90
39315;DHT22;28703;44.412;11.918;2024-02-26T02:52:14;7.40;99.90
39315;DHT22;28703;44.412;11.918;2024-02-26T02:54:39;7.40;99.90
39315;DHT22;28703;44.412;11.918;2024-02-26T02:57:10;7.30;99.90
39315;DHT22;28703;44.412;11.918;2024-02-26T02:59:37;7.30;99.90
39315;DHT22;28703;44.412;11.918;2024-02-26T03:02:02;7.30;99.90
39315;DHT22;28703;44.412;11.918;2024-02-26T03:04:28;7.20;99.90
39315;DHT22;28703;44.412;11.918;2024-02-26T03:06:55;7.20;99.90
39315;DHT22;28703;44.412;11.918;2024-02-26T03:09:21;7.20;99.90
39315;DHT22;28703;44.412;11.918;2024-02-26T03:11:46;7.20;99.90
39315;DHT22;28703;44.412;11.918;2024-02-26T03:14:12;7.10;99.90
39315;DHT22;28703;44.412;11.918;2024-02-26T03:16:38;7.00;99.90
39315;DHT22;28703;44.412;11.918;2024-02-26T03:19:04;6.90;99.90
39315;DHT22;28703;44.412;11.918;2024-02-26T03:21:30;6.90;99.90
39315;DHT22;28703;44.412;11.918;2024-02-26T03:23:55;6.80;99.90
39315;DHT22;28703;44.412;11.918;2024-02-26T03:26:22;6.70;99.90
39315;DHT22;28703;44.412;11.918;2024-02-26T03:28:48;6.70;99.90
39315;DHT22;28703;44.412;11.918;2024-02-26T03:31:14;6.70;99.90
39315;DHT22;28703;44.412;11.918;2024-02-26T03:33:40;6.60;99.90
39315;DHT22;28703;44.412;11.918;2024-02-26T03:36:06;6.60;99.90
39315;DHT22;28703;44.412;11.918;2024-02-26T03:38:33;6.60;99.90
39315;DHT22;28703;44.412;11.918;2024-02-26T03:40:59;6.60;99.90
39315;DHT22;28703;44.412;11.918;2024-02-26T03:43:25;6.60;99.90
39315;DHT22;28703;44.412;11.918;2024-02-26T03:45:50;6.60;99.90
39315;DHT22;28703;44.412;11.918;2024-02-26T03:48:16;6.60;99.90
39315;DHT22;28703;44.412;11.918;2024-02-26T03:50:42;6.60;99.90
39315;DHT22;28703;44.412;11.918;2024-02-26T03:53:07;6.70;99.90
39315;DHT22;28703;44.412;11.918;2024-02-26T03:55:35;6.70;99.90
39315;DHT22;28703;44.412;11.918;2024-02-26T03:58:00;6.60;99.90
39315;DHT22;28703;44.412;11.918;2024-02-26T04:00:26;6.70;99.90
39315;DHT22;28703;44.412;11.918;2024-02-26T04:02:54;6.70;99.90
39315;DHT22;28703;44.412;11.918;2024-02-26T04:05:20;6.70;99.90
39315;DHT22;28703;44.412;11.918;2024-02-26T04:07:45;6.70;99.90
39315;DHT22;28703;44.412;11.918;2024-02-26T04:10:12;6.80;99.90
39315;DHT22;28703;44.412;11.918;2024-02-26T04:12:39;6.80;99.90
39315;DHT22;28703;44.412;11.918;2024-02-26T04:15:09;6.80;99.90
39315;DHT22;28703;44.412;11.918;2024-02-26T04:17:36;6.90;99.90
39315;DHT22;28703;44.412;11.918;2024-02-26T04:20:03;6.90;99.90
39315;DHT22;28703;44.412;11.918;2024-02-26T04:22:31;6.90;99.90
39315;DHT22;28703;44.412;11.918;2024-02-26T04:24:57;6.90;99.90
39315;DHT22;28703;44.412;11.918;2024-02-26T04:27:23;6.90;99.90
39315;DHT22;28703;44.412;11.918;2024-02-26T04:29:49;6.90;99.90
39315;DHT22;28703;44.412;11.918;2024-02-26T04:32:14;6.80;99.90
39315;DHT22;28703;44.412;11.918;2024-02-26T04:34:40;6.80;99.90
39315;DHT22;28703;44.412;11.918;2024-02-26T04:37:07;6.80;99.90
39315;DHT22;28703;44.412;11.918;2024-02-26T04:39:33;6.80;99.90
39315;DHT22;28703;44.412;11.918;2024-02-26T04:41:59;6.70;99.90
39315;DHT22;28703;44.412;11.918;2024-02-26T04:44:25;6.80;99.90
39315;DHT22;28703;44.412;11.918;2024-02-26T04:46:50;6.80;99.90
39315;DHT22;28703;44.412;11.918;2024-02-26T04:49:16;6.80;99.90
39315;DHT22;28703;44.412;11.918;2024-02-26T04:51:42;6.80;99.90
39315;DHT22;28703;44.412;11.918;2024-02-26T04:54:07;6.80;99.90
39315;DHT22;28703;44.412;11.918;2024-02-26T04:56:33;6.80;99.90
39315;DHT22;28703;44.412;11.918;2024-02-26T04:58:59;6.70;99.90
39315;DHT22;28703;44.412;11.918;2024-02-26T05:01:25;6.70;99.90
39315;DHT22;28703;44.412;11.918;2024-02-26T05:03:51;6.70;99.90
39315;DHT22;28703;44.412;11.918;2024-02-26T05:06:17;6.70;99.90
39315;DHT22;28703;44.412;11.918;2024-02-26T05:08:42;6.70;99.90
39315;DHT22;28703;44.412;11.918;2024-02-26T05:11:09;6.70;99.90
39315;DHT22;28703;44.412;11.918;2024-02-26T05:13:35;6.70;99.90
39315;DHT22;28703;44.412;11.918;2024-02-26T05:16:00;6.60;99.90
39315;DHT22;28703;44.412;11.918;2024-02-26T05:18:27;6.60;99.90
39315;DHT22;28703;44.412;11.918;2024-02-26T05:20:53;6.60;99.90
39315;DHT22;28703;44.412;11.918;2024-02-26T05:23:19;6.60;99.90
39315;DHT22;28703;44.412;11.918;2024-02-26T05:25:44;6.50;99.90
39315;DHT22;28703;44.412;11.918;2024-02-26T05:28:12;6.50;99.90
39315;DHT22;28703;44.412;11.918;2024-02-26T05:30:38;6.50;99.90
39315;DHT22;28703;44.412;11.918;2024-02-26T05:33:05;6.50;99.90
39315;DHT22;28703;44.412;11.918;2024-02-26T05:35:31;6.40;99.90
39315;DHT22;28703;44.412;11.918;2024-02-26T05:37:57;6.40;99.90
39315;DHT22;28703;44.412;11.918;2024-02-26T05:40:22;6.40;99.90
39315;DHT22;28703;44.412;11.918;2024-02-26T05:42:48;6.30;99.90
39315;DHT22;28703;44.412;11.918;2024-02-26T05:45:14;6.30;99.90
39315;DHT22;28703;44.412;11.918;2024-02-26T05:47:40;6.20;99.90
39315;DHT22;28703;44.412;11.918;2024-02-26T05:50:11;6.20;99.90
39315;DHT22;28703;44.412;11.918;2024-02-26T05:52:38;6.20;99.90
39315;DHT22;28703;44.412;11.918;2024-02-26T05:55:04;6.10;99.90
39315;DHT22;28703;44.412;11.918;2024-02-26T05:57:31;6.20;99.90
39315;DHT22;28703;44.412;11.918;2024-02-26T05:59:57;6.20;99.90
39315;DHT22;28703;44.412;11.918;2024-02-26T06:02:26;6.20;99.90
39315;DHT22;28703;44.412;11.918;2024-02-26T06:04:52;6.20;99.90
39315;DHT22;28703;44.412;11.918;2024-02-26T06:07:17;6.20;99.90
39315;DHT22;28703;44.412;11.918;2024-02-26T06:09:43;6.30;99.90
39315;DHT22;28703;44.412;11.918;2024-02-26T06:12:09;6.30;99.90
39315;DHT22;28703;44.412;11.918;2024-02-26T06:14:34;6.30;99.90
39315;DHT22;28703;44.412;11.918;2024-02-26T06:17:01;6.40;99.90
39315;DHT22;28703;44.412;11.918;2024-02-26T06:19:27;6.40;99.90
39315;DHT22;28703;44.412;11.918;2024-02-26T06:21:52;6.50;99.90
39315;DHT22;28703;44.412;11.918;2024-02-26T06:24:18;6.50;99.90
39315;DHT22;28703;44.412;11.918;2024-02-26T06:26:46;6.50;99.90
39315;DHT22;28703;44.412;11.918;2024-02-26T06:29:12;6.50;99.90
39315;DHT22;28703;44.412;11.918;2024-02-26T06:31:38;6.50;99.90
39315;DHT22;28703;44.412;11.918;2024-02-26T06:34:03;6.60;99.90
39315;DHT22;28703;44.412;11.918;2024-02-26T06:36:29;6.60;99.90
39315;DHT22;28703;44.412;11.918;2024-02-26T06:38:57;6.60;99.90
39315;DHT22;28703;44.412;11.918;2024-02-26T06:41:23;6.70;99.90
39315;DHT22;28703;44.412;11.918;2024-02-26T06:43:54;6.70;99.90
39315;DHT22;28703;44.412;11.918;2024-02-26T06:46:19;6.70;99.90
39315;DHT22;28703;44.412;11.918;2024-02-26T06:48:45;6.70;99.90
39315;DHT22;28703;44.412;11.918;2024-02-26T06:51:11;6.80;99.90
39315;DHT22;28703;44.412;11.918;2024-02-26T06:53:37;6.90;99.90
39315;DHT22;28703;44.412;11.918;2024-02-26T06:56:02;6.90;99.90
39315;DHT22;28703;44.412;11.918;2024-02-26T06:58:28;7.00;99.90
39315;DHT22;28703;44.412;11.918;2024-02-26T07:00:54;7.10;99.90
39315;DHT22;28703;44.412;11.918;2024-02-26T07:03:20;7.10;99.90
39315;DHT22;28703;44.412;11.918;2024-02-26T07:05:45;7.10;99.90
39315;DHT22;28703;44.412;11.918;2024-02-26T07:08:11;7.10;99.90
39315;DHT22;28703;44.412;11.918;2024-02-26T07:10:37;7.20;99.90
39315;DHT22;28703;44.412;11.918;2024-02-26T07:13:03;7.30;99.90
39315;DHT22;28703;44.412;11.918;2024-02-26T07:15:29;7.40;99.90
39315;DHT22;28703;44.412;11.918;2024-02-26T07:17:54;7.40;99.90
39315;DHT22;28703;44.412;11.918;2024-02-26T07:20:20;7.40;99.90
39315;DHT22;28703;44.412;11.918;2024-02-26T07:22:46;7.40;99.90
39315;DHT22;28703;44.412;11.918;2024-02-26T07:25:12;7.50;99.90
39315;DHT22;28703;44.412;11.918;2024-02-26T07:27:39;7.50;99.90
39315;DHT22;28703;44.412;11.918;2024-02-26T07:30:07;7.60;99.90
39315;DHT22;28703;44.412;11.918;2024-02-26T07:32:34;7.60;99.90
39315;DHT22;28703;44.412;11.918;2024-02-26T07:34:59;7.60;99.90
39315;DHT22;28703;44.412;11.918;2024-02-26T07:37:25;7.60;99.90
39315;DHT22;28703;44.412;11.918;2024-02-26T07:39:51;7.60;99.90
39315;DHT22;28703;44.412;11.918;2024-02-26T07:42:17;7.60;99.90
39315;DHT22;28703;44.412;11.918;2024-02-26T07:44:43;7.60;99.90
39315;DHT22;28703;44.412;11.918;2024-02-26T07:47:09;7.60;99.90
39315;DHT22;28703;44.412;11.918;2024-02-26T07:49:35;7.60;99.90
39315;DHT22;28703;44.412;11.918;2024-02-26T07:52:01;7.60;99.90
39315;DHT22;28703;44.412;11.918;2024-02-26T07:54:26;7.60;99.90
39315;DHT22;28703;44.412;11.918;2024-02-26T07:56:52;7.60;99.90
39315;DHT22;28703;44.412;11.918;2024-02-26T07:59:18;7.70;99.90
39315;DHT22;28703;44.412;11.918;2024-02-26T08:01:43;7.70;99.90
39315;DHT22;28703;44.412;11.918;2024-02-26T08:04:09;7.80;99.90
39315;DHT22;28703;44.412;11.918;2024-02-26T08:06:35;7.80;99.90
39315;DHT22;28703;44.412;11.918;2024-02-26T08:09:01;7.80;99.90
39315;DHT22;28703;44.412;11.918;2024-02-26T08:11:26;7.80;99.90
39315;DHT22;28703;44.412;11.918;2024-02-26T08:13:53;7.80;99.90
39315;DHT22;28703;44.412;11.918;2024-02-26T08:16:19;7.90;99.90
39315;DHT22;28703;44.412;11.918;2024-02-26T08:18:44;7.90;99.90
39315;DHT22;28703;44.412;11.918;2024-02-26T08:21:10;8.00;99.90
39315;DHT22;28703;44.412;11.918;2024-02-26T08:23:36;7.90;99.90
39315;DHT22;28703;44.412;11.918;2024-02-26T08:26:02;7.90;99.90
39315;DHT22;28703;44.412;11.918;2024-02-26T08:28:29;8.00;99.90
39315;DHT22;28703;44.412;11.918;2024-02-26T08:30:55;8.00;99.90
39315;DHT22;28703;44.412;11.918;2024-02-26T08:33:21;8.00;99.90
39315;DHT22;28703;44.412;11.918;2024-02-26T08:35:46;8.10;99.90
39315;DHT22;28703;44.412;11.918;2024-02-26T08:38:12;8.20;99.90
39315;DHT22;28703;44.412;11.918;2024-02-26T08:40:38;8.20;99.90
39315;DHT22;28703;44.412;11.918;2024-02-26T08:43:04;8.30;99.90
39315;DHT22;28703;44.412;11.918;2024-02-26T08:45:29;8.30;99.90
39315;DHT22;28703;44.412;11.918;2024-02-26T08:47:55;8.40;99.90
39315;DHT22;28703;44.412;11.918;2024-02-26T08:50:21;8.40;99.90
39315;DHT22;28703;44.412;11.918;2024-02-26T08:52:47;8.50;99.90
39315;DHT22;28703;44.412;11.918;2024-02-26T08:55:16;8.50;99.90
39315;DHT22;28703;44.412;11.918;2024-02-26T08:57:42;8.60;99.90
39315;DHT22;28703;44.412;11.918;2024-02-26T09:00:08;8.70;99.90
39315;DHT22;28703;44.412;11.918;2024-02-26T09:02:34;8.80;99.90
39315;DHT22;28703;44.412;11.918;2024-02-26T09:05:00;8.90;99.90
39315;DHT22;28703;44.412;11.918;2024-02-26T09:07:25;8.90;99.90
39315;DHT22;28703;44.412;11.918;2024-02-26T09:09:51;9.00;99.90
39315;DHT22;28703;44.412;11.918;2024-02-26T09:12:17;9.00;99.90
39315;DHT22;28703;44.412;11.918;2024-02-26T09:14:42;9.00;99.90
39315;DHT22;28703;44.412;11.918;2024-02-26T09:17:08;9.10;99.90
39315;DHT22;28703;44.412;11.918;2024-02-26T09:19:34;9.10;99.90
39315;DHT22;28703;44.412;11.918;2024-02-26T09:22:00;9.20;99.90
39315;DHT22;28703;44.412;11.918;2024-02-26T09:24:26;9.20;99.90
39315;DHT22;28703;44.412;11.918;2024-02-26T09:26:52;9.20;99.90
39315;DHT22;28703;44.412;11.918;2024-02-26T09:29:18;9.30;99.90
39315;DHT22;28703;44.412;11.918;2024-02-26T09:31:43;9.30;99.90
39315;DHT22;28703;44.412;11.918;2024-02-26T09:34:13;9.40;99.90
39315;DHT22;28703;44.412;11.918;2024-02-26T09:36:38;9.40;99.90
39315;DHT22;28703;44.412;11.918;2024-02-26T09:39:04;9.40;99.90
39315;DHT22;28703;44.412;11.918;2024-02-26T09:41:30;9.40;99.90
39315;DHT22;28703;44.412;11.918;2024-02-26T09:43:57;9.50;99.90
39315;DHT22;28703;44.412;11.918;2024-02-26T09:46:27;9.50;99.90
39315;DHT22;28703;44.412;11.918;2024-02-26T09:48:54;9.60;99.90
39315;DHT22;28703;44.412;11.918;2024-02-26T09:51:23;9.60;99.90
39315;DHT22;28703;44.412;11.918;2024-02-26T09:53:52;9.70;99.90
39315;DHT22;28703;44.412;11.918;2024-02-26T09:56:18;9.70;99.90
39315;DHT22;28703;44.412;11.918;2024-02-26T09:58:44;9.70;99.90
39315;DHT22;28703;44.412;11.918;2024-02-26T10:01:18;9.80;99.90
39315;DHT22;28703;44.412;11.918;2024-02-26T10:03:50;9.80;99.90
39315;DHT22;28703;44.412;11.918;2024-02-26T10:06:17;9.90;99.90
39315;DHT22;28703;44.412;11.918;2024-02-26T10:08:43;9.90;99.90
39315;DHT22;28703;44.412;11.918;2024-02-26T10:11:10;10.00;99.90
39315;DHT22;28703;44.412;11.918;2024-02-26T10:13:36;10.10;99.90
39315;DHT22;28703;44.412;11.918;2024-02-26T10:16:02;10.10;99.90
39315;DHT22;28703;44.412;11.918;2024-02-26T10:21:13;10.20;99.90
39315;DHT22;28703;44.412;11.918;2024-02-26T10:23:39;10.20;99.90
39315;DHT22;28703;44.412;11.918;2024-02-26T10:26:05;10.30;99.90
39315;DHT22;28703;44.412;11.918;2024-02-26T10:28:31;10.30;99.90
39315;DHT22;28703;44.412;11.918;2024-02-26T10:30:56;10.40;99.90
39315;DHT22;28703;44.412;11.918;2024-02-26T10:33:22;10.40;99.90
39315;DHT22;28703;44.412;11.918;2024-02-26T10:35:48;10.50;99.90
39315;DHT22;28703;44.412;11.918;2024-02-26T10:38:14;10.60;99.90
39315;DHT22;28703;44.412;11.918;2024-02-26T10:40:42;10.60;99.90
39315;DHT22;28703;44.412;11.918;2024-02-26T10:43:08;10.60;99.90
39315;DHT22;28703;44.412;11.918;2024-02-26T10:45:34;10.70;99.90
39315;DHT22;28703;44.412;11.918;2024-02-26T10:48:00;10.70;99.90
39315;DHT22;28703;44.412;11.918;2024-02-26T10:50:26;10.80;99.90
39315;DHT22;28703;44.412;11.918;2024-02-26T10:52:52;10.80;99.90
39315;DHT22;28703;44.412;11.918;2024-02-26T10:55:21;10.90;99.90
39315;DHT22;28703;44.412;11.918;2024-02-26T10:57:48;10.90;99.90
39315;DHT22;28703;44.412;11.918;2024-02-26T11:00:16;10.90;99.90
39315;DHT22;28703;44.412;11.918;2024-02-26T11:02:42;11.00;99.90
39315;DHT22;28703;44.412;11.918;2024-02-26T11:05:11;11.00;99.90
39315;DHT22;28703;44.412;11.918;2024-02-26T11:07:37;11.00;99.90
39315;DHT22;28703;44.412;11.918;2024-02-26T11:10:05;11.00;99.90
39315;DHT22;28703;44.412;11.918;2024-02-26T11:12:35;11.00;99.90
39315;DHT22;28703;44.412;11.918;2024-02-26T11:15:03;11.10;99.90
39315;DHT22;28703;44.412;11.918;2024-02-26T11:17:29;11.10;99.90
39315;DHT22;28703;44.412;11.918;2024-02-26T11:20:00;11.10;99.90
39315;DHT22;28703;44.412;11.918;2024-02-26T11:22:28;11.10;99.90
39315;DHT22;28703;44.412;11.918;2024-02-26T11:24:55;11.10;99.90
39315;DHT22;28703;44.412;11.918;2024-02-26T11:27:40;11.10;99.90
39315;DHT22;28703;44.412;11.918;2024-02-26T11:30:11;11.10;99.90
39315;DHT22;28703;44.412;11.918;2024-02-26T11:32:38;11.10;99.90
39315;DHT22;28703;44.412;11.918;2024-02-26T11:35:05;11.10;99.90
39315;DHT22;28703;44.412;11.918;2024-02-26T11:37:31;11.20;99.90
39315;DHT22;28703;44.412;11.918;2024-02-26T11:39:59;11.20;99.90
39315;DHT22;28703;44.412;11.918;2024-02-26T11:42:26;11.20;99.90
39315;DHT22;28703;44.412;11.918;2024-02-26T11:44:52;11.10;99.90
39315;DHT22;28703;44.412;11.918;2024-02-26T11:47:23;11.20;99.90
39315;DHT22;28703;44.412;11.918;2024-02-26T11:49:50;11.20;99.90
39315;DHT22;28703;44.412;11.918;2024-02-26T11:52:16;11.20;99.90
39315;DHT22;28703;44.412;11.918;2024-02-26T11:54:47;11.20;99.90
39315;DHT22;28703;44.412;11.918;2024-02-26T12:00:14;11.20;99.90
39315;DHT22;28703;44.412;11.918;2024-02-26T12:02:50;11.20;99.90
39315;DHT22;28703;44.412;11.918;2024-02-26T12:05:31;11.20;99.90
39315;DHT22;28703;44.412;11.918;2024-02-26T12:08:05;11.20;99.90
39315;DHT22;28703;44.412;11.918;2024-02-26T12:10:39;11.20;99.90
39315;DHT22;28703;44.412;11.918;2024-02-26T12:13:15;11.30;99.90
39315;DHT22;28703;44.412;11.918;2024-02-26T12:15:45;11.30;99.90
39315;DHT22;28703;44.412;11.918;2024-02-26T12:18:17;11.30;99.90
39315;DHT22;28703;44.412;11.918;2024-02-26T12:20:43;11.30;99.90
39315;DHT22;28703;44.412;11.918;2024-02-26T12:23:16;11.30;99.90
39315;DHT22;28703;44.412;11.918;2024-02-26T12:25:43;11.30;99.90
39315;DHT22;28703;44.412;11.918;2024-02-26T12:28:09;11.30;99.90
39315;DHT22;28703;44.412;11.918;2024-02-26T12:30:35;11.30;99.90
39315;DHT22;28703;44.412;11.918;2024-02-26T12:33:01;11.30;99.90
39315;DHT22;28703;44.412;11.918;2024-02-26T12:35:28;11.30;99.90
39315;DHT22;28703;44.412;11.918;2024-02-26T12:37:54;11.30;99.90
39315;DHT22;28703;44.412;11.918;2024-02-26T12:40:20;11.30;99.90
39315;DHT22;28703;44.412;11.918;2024-02-26T12:42:47;11.30;99.90
39315;DHT22;28703;44.412;11.918;2024-02-26T12:45:13;11.20;99.90
39315;DHT22;28703;44.412;11.918;2024-02-26T12:47:45;11.20;99.90
39315;DHT22;28703;44.412;11.918;2024-02-26T12:50:17;11.20;99.90
39315;DHT22;28703;44.412;11.918;2024-02-26T12:52:46;11.20;99.90
39315;DHT22;28703;44.412;11.918;2024-02-26T12:55:15;11.20;99.90
39315;DHT22;28703;44.412;11.918;2024-02-26T12:57:42;11.20;99.90
39315;DHT22;28703;44.412;11.918;2024-02-26T13:00:14;11.20;99.90
39315;DHT22;28703;44.412;11.918;2024-02-26T13:02:41;11.20;99.90
39315;DHT22;28703;44.412;11.918;2024-02-26T13:05:12;11.20;99.90
39315;DHT22;28703;44.412;11.918;2024-02-26T13:07:42;11.20;99.90
39315;DHT22;28703;44.412;11.918;2024-02-26T13:10:09;11.30;99.90
39315;DHT22;28703;44.412;11.918;2024-02-26T13:12:42;11.30;99.90
39315;DHT22;28703;44.412;11.918;2024-02-26T13:15:14;11.30;99.90
39315;DHT22;28703;44.412;11.918;2024-02-26T13:17:41;11.30;99.90
39315;DHT22;28703;44.412;11.918;2024-02-26T13:20:08;11.30;99.90
39315;DHT22;28703;44.412;11.918;2024-02-26T13:22:35;11.40;99.90
39315;DHT22;28703;44.412;11.918;2024-02-26T13:25:01;11.40;99.90
39315;DHT22;28703;44.412;11.918;2024-02-26T13:27:33;11.40;99.90
39315;DHT22;28703;44.412;11.918;2024-02-26T13:30:09;11.40;99.90
39315;DHT22;28703;44.412;11.918;2024-02-26T13:32:36;11.40;99.90
39315;DHT22;28703;44.412;11.918;2024-02-26T13:35:07;11.50;99.90
39315;DHT22;28703;44.412;11.918;2024-02-26T13:37:34;11.50;99.90
39315;DHT22;28703;44.412;11.918;2024-02-26T13:40:00;11.50;99.90
39315;DHT22;28703;44.412;11.918;2024-02-26T13:42:30;11.50;99.90
39315;DHT22;28703;44.412;11.918;2024-02-26T13:44:55;11.60;99.90
39315;DHT22;28703;44.412;11.918;2024-02-26T13:47:21;11.60;99.90
39315;DHT22;28703;44.412;11.918;2024-02-26T13:49:47;11.60;99.90
39315;DHT22;28703;44.412;11.918;2024-02-26T13:52:13;11.70;99.90
39315;DHT22;28703;44.412;11.918;2024-02-26T13:54:39;11.70;99.90
39315;DHT22;28703;44.412;11.918;2024-02-26T13:57:06;11.60;99.90
39315;DHT22;28703;44.412;11.918;2024-02-26T13:59:32;11.70;99.90
39315;DHT22;28703;44.412;11.918;2024-02-26T14:01:58;11.70;99.90
39315;DHT22;28703;44.412;11.918;2024-02-26T14:04:24;11.70;99.90
39315;DHT22;28703;44.412;11.918;2024-02-26T14:06:49;11.70;99.90
39315;DHT22;28703;44.412;11.918;2024-02-26T14:09:15;11.70;99.90
39315;DHT22;28703;44.412;11.918;2024-02-26T14:11:47;11.70;99.90
39315;DHT22;28703;44.412;11.918;2024-02-26T14:14:12;11.70;99.90
39315;DHT22;28703;44.412;11.918;2024-02-26T14:16:38;11.60;99.90
39315;DHT22;28703;44.412;11.918;2024-02-26T14:19:04;11.60;99.90
39315;DHT22;28703;44.412;11.918;2024-02-26T14:21:30;11.60;99.90
39315;DHT22;28703;44.412;11.918;2024-02-26T14:23:56;11.60;99.90
39315;DHT22;28703;44.412;11.918;2024-02-26T14:26:23;11.50;99.90
39315;DHT22;28703;44.412;11.918;2024-02-26T14:28:48;11.40;99.90
39315;DHT22;28703;44.412;11.918;2024-02-26T14:31:17;11.40;99.90
39315;DHT22;28703;44.412;11.918;2024-02-26T14:33:43;11.40;99.90
39315;DHT22;28703;44.412;11.918;2024-02-26T14:36:09;11.40;99.90
39315;DHT22;28703;44.412;11.918;2024-02-26T14:38:36;11.30;99.90
39315;DHT22;28703;44.412;11.918;2024-02-26T14:41:02;11.30;99.90
39315;DHT22;28703;44.412;11.918;2024-02-26T14:43:29;11.30;99.90
39315;DHT22;28703;44.412;11.918;2024-02-26T14:45:55;11.30;99.90
39315;DHT22;28703;44.412;11.918;2024-02-26T14:48:21;11.30;99.90
39315;DHT22;28703;44.412;11.918;2024-02-26T14:50:47;11.30;99.90
39315;DHT22;28703;44.412;11.918;2024-02-26T14:53:13;11.30;99.90
39315;DHT22;28703;44.412;11.918;2024-02-26T14:55:38;11.30;99.90
39315;DHT22;28703;44.412;11.918;2024-02-26T14:58:04;11.30;99.90
39315;DHT22;28703;44.412;11.918;2024-02-26T15:00:30;11.30;99.90
39315;DHT22;28703;44.412;11.918;2024-02-26T15:02:59;11.30;99.90
39315;DHT22;28703;44.412;11.918;2024-02-26T15:05:25;11.30;99.90
39315;DHT22;28703;44.412;11.918;2024-02-26T15:07:51;11.30;99.90
39315;DHT22;28703;44.412;11.918;2024-02-26T15:10:16;11.40;99.90
39315;DHT22;28703;44.412;11.918;2024-02-26T15:12:42;11.40;99.90
39315;DHT22;28703;44.412;11.918;2024-02-26T15:15:08;11.40;99.90
39315;DHT22;28703;44.412;11.918;2024-02-26T15:17:34;11.40;99.90
39315;DHT22;28703;44.412;11.918;2024-02-26T15:20:01;11.50;99.90
39315;DHT22;28703;44.412;11.918;2024-02-26T15:22:27;11.40;99.90
39315;DHT22;28703;44.412;11.918;2024-02-26T15:24:53;11.50;99.90
39315;DHT22;28703;44.412;11.918;2024-02-26T15:27:19;11.40;99.90